sensor_id;sensor_type;location;lat;lon;timestamp;pressure;altitude;pressure_sealevel;temperature;humidity
63006;BME280;53704;52.532;6.426;2023-05-08T00:00:19;102087.38;;;12.98;100.00
63006;BME280;53704;52.532;6.426;2023-05-08T00:02:45;102086.75;;;12.77;100.00
63006;BME280;53704;52.532;6.426;2023-05-08T00:05:10;102091.22;;;12.48;100.00
63006;BME280;53704;52.532;6.426;2023-05-08T00:07:36;102089.34;;;12.69;100.00
63006;BME280;53704;52.532;6.426;2023-05-08T00:10:06;102085.91;;;12.66;100.00
63006;BME280;53704;52.532;6.426;2023-05-08T00:12:32;102089.47;;;12.67;100.00
63006;BME280;53704;52.532;6.426;2023-05-08T00:14:57;102089.94;;;12.43;100.00
63006;BME280;53704;52.532;6.426;2023-05-08T00:17:23;102092.50;;;12.54;100.00
63006;BME280;53704;52.532;6.426;2023-05-08T00:19:49;102082.16;;;12.40;100.00
63006;BME280;53704;52.532;6.426;2023-05-08T00:22:14;102082.28;;;12.48;100.00
63006;BME280;53704;52.532;6.426;2023-05-08T00:24:39;102085.84;;;12.39;100.00
63006;BME280;53704;52.532;6.426;2023-05-08T00:27:05;102080.84;;;12.44;100.00
63006;BME280;53704;52.532;6.426;2023-05-08T00:29:32;102089.41;;;12.29;100.00
63006;BME280;53704;52.532;6.426;2023-05-08T00:31:58;102089.09;;;12.42;100.00
63006;BME280;53704;52.532;6.426;2023-05-08T00:34:23;102095.06;;;12.56;100.00
63006;BME280;53704;52.532;6.426;2023-05-08T00:36:49;102091.97;;;12.31;100.00
63006;BME280;53704;52.532;6.426;2023-05-08T00:39:14;102091.53;;;12.06;100.00
63006;BME280;53704;52.532;6.426;2023-05-08T00:41:40;102094.13;;;12.18;100.00
63006;BME280;53704;52.532;6.426;2023-05-08T00:44:06;102092.28;;;12.08;100.00
63006;BME280;53704;52.532;6.426;2023-05-08T00:46:31;102087.97;;;12.25;100.00
63006;BME280;53704;52.532;6.426;2023-05-08T00:48:57;102081.75;;;12.15;100.00
63006;BME280;53704;52.532;6.426;2023-05-08T00:51:23;102085.72;;;12.11;100.00
63006;BME280;53704;52.532;6.426;2023-05-08T00:53:48;102082.88;;;12.03;100.00
63006;BME280;53704;52.532;6.426;2023-05-08T00:56:15;102086.28;;;12.05;100.00
63006;BME280;53704;52.532;6.426;2023-05-08T00:58:41;102083.16;;;12.29;100.00
63006;BME280;53704;52.532;6.426;2023-05-08T01:01:08;102078.19;;;12.24;100.00
63006;BME280;53704;52.532;6.426;2023-05-08T01:03:34;102082.44;;;11.78;100.00
63006;BME280;53704;52.532;6.426;2023-05-08T01:06:03;102077.47;;;12.12;100.00
63006;BME280;53704;52.532;6.426;2023-05-08T01:08:32;102085.56;;;12.32;100.00
63006;BME280;53704;52.532;6.426;2023-05-08T01:11:10;102090.50;;;11.68;100.00
63006;BME280;53704;52.532;6.426;2023-05-08T01:16:28;102096.81;;;11.98;100.00
63006;BME280;53704;52.532;6.426;2023-05-08T01:19:12;102102.72;;;11.63;100.00
63006;BME280;53704;52.532;6.426;2023-05-08T01:21:49;102098.19;;;11.73;100.00
63006;BME280;53704;52.532;6.426;2023-05-08T01:24:29;102094.06;;;11.69;100.00
63006;BME280;53704;52.532;6.426;2023-05-08T01:32:41;102092.25;;;11.19;100.00
63006;BME280;53704;52.532;6.426;2023-05-08T01:35:23;102088.47;;;11.41;100.00
63006;BME280;53704;52.532;6.426;2023-05-08T01:38:07;102086.59;;;11.32;100.00
63006;BME280;53704;52.532;6.426;2023-05-08T01:40:51;102090.50;;;11.49;100.00
63006;BME280;53704;52.532;6.426;2023-05-08T01:45:53;102085.34;;;11.36;100.00
63006;BME280;53704;52.532;6.426;2023-05-08T01:48:43;102090.59;;;10.97;100.00
63006;BME280;53704;52.532;6.426;2023-05-08T01:51:17;102082.16;;;11.11;100.00
63006;BME280;53704;52.532;6.426;2023-05-08T01:53:47;102091.00;;;11.23;100.00
63006;BME280;53704;52.532;6.426;2023-05-08T01:56:16;102094.97;;;11.29;100.00
63006;BME280;53704;52.532;6.426;2023-05-08T01:58:44;102096.28;;;11.44;100.00
63006;BME280;53704;52.532;6.426;2023-05-08T02:01:11;102102.94;;;11.40;100.00
63006;BME280;53704;52.532;6.426;2023-05-08T02:03:38;102099.81;;;11.35;100.00
63006;BME280;53704;52.532;6.426;2023-05-08T02:06:07;102110.13;;;11.10;100.00
63006;BME280;53704;52.532;6.426;2023-05-08T02:08:33;102109.50;;;11.07;100.00
63006;BME280;53704;52.532;6.426;2023-05-08T02:11:00;102112.06;;;11.08;100.00
63006;BME280;53704;52.532;6.426;2023-05-08T02:13:28;102100.09;;;11.32;100.00
63006;BME280;53704;52.532;6.426;2023-05-08T02:15:56;102099.34;;;11.20;100.00
63006;BME280;53704;52.532;6.426;2023-05-08T02:18:23;102103.47;;;10.83;100.00
63006;BME280;53704;52.532;6.426;2023-05-08T02:20:51;102096.91;;;10.76;100.00
63006;BME280;53704;52.532;6.426;2023-05-08T02:23:18;102102.03;;;10.79;100.00
63006;BME280;53704;52.532;6.426;2023-05-08T02:25:45;102099.69;;;10.65;100.00
63006;BME280;53704;52.532;6.426;2023-05-08T02:28:13;102108.28;;;10.59;100.00
63006;BME280;53704;52.532;6.426;2023-05-08T02:30:40;102101.00;;;10.71;100.00
63006;BME280;53704;52.532;6.426;2023-05-08T02:33:07;102101.75;;;10.82;100.00
63006;BME280;53704;52.532;6.426;2023-05-08T02:35:34;102097.28;;;10.93;100.00
63006;BME280;53704;52.532;6.426;2023-05-08T02:38:02;102103.25;;;10.75;100.00
63006;BME280;53704;52.532;6.426;2023-05-08T02:40:35;102101.94;;;10.91;100.00
63006;BME280;53704;52.532;6.426;2023-05-08T02:43:01;102099.06;;;10.82;100.00
63006;BME280;53704;52.532;6.426;2023-05-08T02:45:32;102094.56;;;10.62;100.00
63006;BME280;53704;52.532;6.426;2023-05-08T02:48:09;102099.50;;;10.57;100.00
63006;BME280;53704;52.532;6.426;2023-05-08T02:54:03;102100.06;;;10.60;100.00
63006;BME280;53704;52.532;6.426;2023-05-08T02:56:38;102096.81;;;10.57;100.00
63006;BME280;53704;52.532;6.426;2023-05-08T02:59:19;102096.63;;;10.48;100.00
63006;BME280;53704;52.532;6.426;2023-05-08T03:01:58;102092.66;;;10.53;100.00
63006;BME280;53704;52.532;6.426;2023-05-08T03:04:29;102098.91;;;10.53;100.00
63006;BME280;53704;52.532;6.426;2023-05-08T03:06:56;102100.53;;;10.44;100.00
63006;BME280;53704;52.532;6.426;2023-05-08T03:09:25;102106.03;;;10.64;100.00
63006;BME280;53704;52.532;6.426;2023-05-08T03:12:02;102098.56;;;10.46;100.00
63006;BME280;53704;52.532;6.426;2023-05-08T03:14:29;102103.25;;;10.44;100.00
63006;BME280;53704;52.532;6.426;2023-05-08T03:16:59;102111.66;;;10.19;100.00
63006;BME280;53704;52.532;6.426;2023-05-08T03:19:31;102115.09;;;9.88;100.00
63006;BME280;53704;52.532;6.426;2023-05-08T03:21:59;102124.22;;;9.97;100.00
63006;BME280;53704;52.532;6.426;2023-05-08T03:24:26;102118.09;;;10.06;100.00
63006;BME280;53704;52.532;6.426;2023-05-08T03:26:55;102120.38;;;10.11;100.00
63006;BME280;53704;52.532;6.426;2023-05-08T03:29:22;102121.41;;;9.99;100.00
63006;BME280;53704;52.532;6.426;2023-05-08T03:31:50;102113.66;;;10.05;100.00
63006;BME280;53704;52.532;6.426;2023-05-08T03:34:16;102117.06;;;10.19;100.00
63006;BME280;53704;52.532;6.426;2023-05-08T03:36:43;102114.75;;;10.14;100.00
63006;BME280;53704;52.532;6.426;2023-05-08T03:39:10;102111.03;;;9.94;100.00
63006;BME280;53704;52.532;6.426;2023-05-08T03:41:36;102109.84;;;9.87;100.00
63006;BME280;53704;52.532;6.426;2023-05-08T03:44:02;102110.53;;;10.00;100.00
63006;BME280;53704;52.532;6.426;2023-05-08T03:46:30;102106.72;;;10.03;100.00
63006;BME280;53704;52.532;6.426;2023-05-08T03:48:56;102104.59;;;9.85;100.00
63006;BME280;53704;52.532;6.426;2023-05-08T03:51:25;102100.69;;;9.78;100.00
63006;BME280;53704;52.532;6.426;2023-05-08T03:53:52;102103.09;;;9.60;100.00
63006;BME280;53704;52.532;6.426;2023-05-08T03:56:17;102099.97;;;9.76;100.00
63006;BME280;53704;52.532;6.426;2023-05-08T03:58:43;102096.28;;;9.77;100.00
63006;BME280;53704;52.532;6.426;2023-05-08T04:01:20;102089.59;;;9.71;100.00
63006;BME280;53704;52.532;6.426;2023-05-08T04:06:54;102106.28;;;9.54;100.00
63006;BME280;53704;52.532;6.426;2023-05-08T04:09:34;102098.94;;;9.56;100.00
63006;BME280;53704;52.532;6.426;2023-05-08T04:12:25;102105.53;;;9.63;100.00
63006;BME280;53704;52.532;6.426;2023-05-08T04:14:59;102095.94;;;9.70;100.00
63006;BME280;53704;52.532;6.426;2023-05-08T04:17:33;102104.81;;;9.50;100.00
63006;BME280;53704;52.532;6.426;2023-05-08T04:20:03;102104.31;;;9.56;100.00
63006;BME280;53704;52.532;6.426;2023-05-08T04:22:31;102102.59;;;9.55;100.00
63006;BME280;53704;52.532;6.426;2023-05-08T04:25:01;102102.19;;;9.71;100.00
63006;BME280;53704;52.532;6.426;2023-05-08T04:27:28;102096.47;;;9.64;100.00
63006;BME280;53704;52.532;6.426;2023-05-08T04:29:54;102099.41;;;9.61;100.00
63006;BME280;53704;52.532;6.426;2023-05-08T04:32:21;102088.84;;;9.69;100.00
63006;BME280;53704;52.532;6.426;2023-05-08T04:34:47;102099.06;;;9.54;100.00
63006;BME280;53704;52.532;6.426;2023-05-08T04:37:29;102097.38;;;9.31;100.00
63006;BME280;53704;52.532;6.426;2023-05-08T04:39:58;102092.88;;;9.20;100.00
63006;BME280;53704;52.532;6.426;2023-05-08T04:42:23;102099.47;;;9.27;100.00
63006;BME280;53704;52.532;6.426;2023-05-08T04:44:51;102104.00;;;9.15;100.00
63006;BME280;53704;52.532;6.426;2023-05-08T04:47:17;102098.50;;;9.17;100.00
63006;BME280;53704;52.532;6.426;2023-05-08T04:49:42;102096.78;;;9.38;100.00
63006;BME280;53704;52.532;6.426;2023-05-08T04:52:08;102093.94;;;9.51;100.00
63006;BME280;53704;52.532;6.426;2023-05-08T04:54:33;102096.78;;;9.38;100.00
63006;BME280;53704;52.532;6.426;2023-05-08T04:56:59;102097.25;;;9.44;100.00
63006;BME280;53704;52.532;6.426;2023-05-08T04:59:24;102099.94;;;9.44;100.00
63006;BME280;53704;52.532;6.426;2023-05-08T05:01:50;102107.72;;;9.58;100.00
63006;BME280;53704;52.532;6.426;2023-05-08T05:04:15;102106.03;;;9.57;100.00
63006;BME280;53704;52.532;6.426;2023-05-08T05:06:41;102112.75;;;9.51;100.00
63006;BME280;53704;52.532;6.426;2023-05-08T05:09:06;102110.53;;;9.56;100.00
63006;BME280;53704;52.532;6.426;2023-05-08T05:11:32;102113.84;;;9.49;100.00
63006;BME280;53704;52.532;6.426;2023-05-08T05:13:58;102108.50;;;9.81;100.00
63006;BME280;53704;52.532;6.426;2023-05-08T05:16:24;102112.94;;;9.82;100.00
63006;BME280;53704;52.532;6.426;2023-05-08T05:18:49;102112.66;;;9.85;100.00
63006;BME280;53704;52.532;6.426;2023-05-08T05:21:14;102117.69;;;9.78;100.00
63006;BME280;53704;52.532;6.426;2023-05-08T05:23:40;102118.97;;;9.95;100.00
63006;BME280;53704;52.532;6.426;2023-05-08T05:26:06;102119.06;;;9.73;100.00
63006;BME280;53704;52.532;6.426;2023-05-08T05:28:31;102126.38;;;9.82;100.00
63006;BME280;53704;52.532;6.426;2023-05-08T05:30:57;102125.69;;;10.01;100.00
63006;BME280;53704;52.532;6.426;2023-05-08T05:33:23;102125.56;;;10.03;100.00
63006;BME280;53704;52.532;6.426;2023-05-08T05:35:48;102128.66;;;10.19;100.00
63006;BME280;53704;52.532;6.426;2023-05-08T05:38:14;102138.31;;;10.22;100.00
63006;BME280;53704;52.532;6.426;2023-05-08T05:40:39;102135.69;;;10.10;100.00
63006;BME280;53704;52.532;6.426;2023-05-08T05:43:04;102139.25;;;10.32;100.00
63006;BME280;53704;52.532;6.426;2023-05-08T05:45:30;102142.13;;;10.19;100.00
63006;BME280;53704;52.532;6.426;2023-05-08T05:47:56;102143.56;;;10.35;100.00
63006;BME280;53704;52.532;6.426;2023-05-08T05:50:21;102143.88;;;10.41;100.00
63006;BME280;53704;52.532;6.426;2023-05-08T05:52:47;102144.53;;;10.55;100.00
63006;BME280;53704;52.532;6.426;2023-05-08T05:55:12;102149.53;;;10.59;100.00
63006;BME280;53704;52.532;6.426;2023-05-08T05:57:38;102149.34;;;10.72;100.00
63006;BME280;53704;52.532;6.426;2023-05-08T06:00:04;102160.88;;;10.84;100.00
63006;BME280;53704;52.532;6.426;2023-05-08T06:02:30;102162.88;;;10.82;100.00
63006;BME280;53704;52.532;6.426;2023-05-08T06:04:59;102156.41;;;10.94;100.00
63006;BME280;53704;52.532;6.426;2023-05-08T06:07:24;102155.69;;;10.92;100.00
63006;BME280;53704;52.532;6.426;2023-05-08T06:09:50;102156.06;;;11.09;100.00
63006;BME280;53704;52.532;6.426;2023-05-08T06:12:17;102150.53;;;11.10;100.00
63006;BME280;53704;52.532;6.426;2023-05-08T06:14:43;102155.09;;;11.19;100.00
63006;BME280;53704;52.532;6.426;2023-05-08T06:17:08;102145.59;;;11.15;100.00
63006;BME280;53704;52.532;6.426;2023-05-08T06:19:34;102145.75;;;11.23;100.00
63006;BME280;53704;52.532;6.426;2023-05-08T06:21:59;102153.75;;;11.35;100.00
63006;BME280;53704;52.532;6.426;2023-05-08T06:24:25;102146.69;;;11.44;100.00
63006;BME280;53704;52.532;6.426;2023-05-08T06:26:50;102154.03;;;11.41;100.00
63006;BME280;53704;52.532;6.426;2023-05-08T06:29:15;102145.72;;;11.54;100.00
63006;BME280;53704;52.532;6.426;2023-05-08T06:31:41;102140.91;;;11.58;100.00
63006;BME280;53704;52.532;6.426;2023-05-08T06:34:06;102138.50;;;11.65;100.00
63006;BME280;53704;52.532;6.426;2023-05-08T06:36:32;102137.94;;;11.71;100.00
63006;BME280;53704;52.532;6.426;2023-05-08T06:38:57;102139.97;;;11.88;100.00
63006;BME280;53704;52.532;6.426;2023-05-08T06:41:23;102148.47;;;11.84;100.00
63006;BME280;53704;52.532;6.426;2023-05-08T06:43:48;102155.47;;;12.06;100.00
63006;BME280;53704;52.532;6.426;2023-05-08T06:46:14;102149.09;;;11.97;100.00
63006;BME280;53704;52.532;6.426;2023-05-08T06:48:39;102150.38;;;12.12;100.00
63006;BME280;53704;52.532;6.426;2023-05-08T06:51:05;102151.09;;;12.34;100.00
63006;BME280;53704;52.532;6.426;2023-05-08T06:53:30;102154.91;;;12.31;100.00
63006;BME280;53704;52.532;6.426;2023-05-08T06:55:56;102158.47;;;12.42;100.00
63006;BME280;53704;52.532;6.426;2023-05-08T06:58:23;102153.78;;;12.44;100.00
63006;BME280;53704;52.532;6.426;2023-05-08T07:00:48;102165.56;;;12.62;100.00
63006;BME280;53704;52.532;6.426;2023-05-08T07:03:14;102159.00;;;12.55;100.00
63006;BME280;53704;52.532;6.426;2023-05-08T07:05:39;102161.13;;;12.71;100.00
63006;BME280;53704;52.532;6.426;2023-05-08T07:08:05;102154.97;;;12.89;100.00
63006;BME280;53704;52.532;6.426;2023-05-08T07:10:30;102162.34;;;12.96;100.00
63006;BME280;53704;52.532;6.426;2023-05-08T07:12:56;102152.06;;;13.10;100.00
63006;BME280;53704;52.532;6.426;2023-05-08T07:15:21;102154.50;;;13.03;100.00
63006;BME280;53704;52.532;6.426;2023-05-08T07:17:47;102152.53;;;12.95;100.00
63006;BME280;53704;52.532;6.426;2023-05-08T07:20:12;102147.84;;;12.97;100.00
63006;BME280;53704;52.532;6.426;2023-05-08T07:22:38;102147.50;;;13.48;100.00
63006;BME280;53704;52.532;6.426;2023-05-08T07:25:04;102146.19;;;13.52;100.00
63006;BME280;53704;52.532;6.426;2023-05-08T07:27:29;102150.75;;;13.51;100.00
63006;BME280;53704;52.532;6.426;2023-05-08T07:29:55;102149.63;;;13.54;100.00
63006;BME280;53704;52.532;6.426;2023-05-08T07:32:22;102150.38;;;13.92;100.00
63006;BME280;53704;52.532;6.426;2023-05-08T07:34:48;102145.41;;;14.05;100.00
63006;BME280;53704;52.532;6.426;2023-05-08T07:37:13;102138.75;;;14.18;100.00
63006;BME280;53704;52.532;6.426;2023-05-08T07:39:39;102136.03;;;14.18;100.00
63006;BME280;53704;52.532;6.426;2023-05-08T07:42:04;102130.69;;;14.26;100.00
63006;BME280;53704;52.532;6.426;2023-05-08T07:44:31;102133.41;;;14.44;100.00
63006;BME280;53704;52.532;6.426;2023-05-08T07:46:57;102135.78;;;14.65;100.00
63006;BME280;53704;52.532;6.426;2023-05-08T07:49:23;102138.50;;;14.65;100.00
63006;BME280;53704;52.532;6.426;2023-05-08T07:51:48;102137.16;;;14.69;100.00
63006;BME280;53704;52.532;6.426;2023-05-08T07:54:14;102129.22;;;15.02;100.00
63006;BME280;53704;52.532;6.426;2023-05-08T07:56:39;102132.84;;;14.84;100.00
63006;BME280;53704;52.532;6.426;2023-05-08T07:59:05;102124.81;;;14.48;100.00
63006;BME280;53704;52.532;6.426;2023-05-08T08:01:31;102126.66;;;14.66;100.00
63006;BME280;53704;52.532;6.426;2023-05-08T08:03:56;102136.25;;;14.87;100.00
63006;BME280;53704;52.532;6.426;2023-05-08T08:06:22;102131.44;;;14.72;100.00
63006;BME280;53704;52.532;6.426;2023-05-08T08:08:47;102136.16;;;15.31;100.00
63006;BME280;53704;52.532;6.426;2023-05-08T08:11:12;102136.56;;;15.18;100.00
63006;BME280;53704;52.532;6.426;2023-05-08T08:13:38;102129.59;;;15.50;100.00
63006;BME280;53704;52.532;6.426;2023-05-08T08:16:03;102127.22;;;15.47;100.00
63006;BME280;53704;52.532;6.426;2023-05-08T08:18:32;102129.19;;;15.79;100.00
63006;BME280;53704;52.532;6.426;2023-05-08T08:20:57;102131.91;;;15.87;100.00
63006;BME280;53704;52.532;6.426;2023-05-08T08:23:23;102144.66;;;15.87;100.00
63006;BME280;53704;52.532;6.426;2023-05-08T08:25:48;102139.59;;;16.00;100.00
63006;BME280;53704;52.532;6.426;2023-05-08T08:28:14;102137.56;;;16.19;100.00
63006;BME280;53704;52.532;6.426;2023-05-08T08:30:40;102134.34;;;16.40;100.00
63006;BME280;53704;52.532;6.426;2023-05-08T08:33:05;102141.47;;;16.57;100.00
63006;BME280;53704;52.532;6.426;2023-05-08T08:35:32;102132.97;;;16.44;100.00
63006;BME280;53704;52.532;6.426;2023-05-08T08:37:57;102136.16;;;16.72;100.00
63006;BME280;53704;52.532;6.426;2023-05-08T08:40:23;102132.75;;;16.78;100.00
63006;BME280;53704;52.532;6.426;2023-05-08T08:42:48;102133.63;;;16.62;100.00
63006;BME280;53704;52.532;6.426;2023-05-08T08:45:14;102135.31;;;16.72;100.00
63006;BME280;53704;52.532;6.426;2023-05-08T08:47:43;102134.03;;;17.15;100.00
63006;BME280;53704;52.532;6.426;2023-05-08T08:50:09;102123.31;;;17.22;100.00
63006;BME280;53704;52.532;6.426;2023-05-08T08:52:42;102128.91;;;17.29;100.00
63006;BME280;53704;52.532;6.426;2023-05-08T08:55:14;102129.63;;;17.06;100.00
63006;BME280;53704;52.532;6.426;2023-05-08T08:57:51;102124.59;;;16.95;100.00
63006;BME280;53704;52.532;6.426;2023-05-08T09:00:18;102114.00;;;17.08;100.00
63006;BME280;53704;52.532;6.426;2023-05-08T09:02:45;102121.88;;;17.34;100.00
63006;BME280;53704;52.532;6.426;2023-05-08T09:05:10;102115.94;;;16.75;100.00
63006;BME280;53704;52.532;6.426;2023-05-08T09:07:37;102121.84;;;16.95;100.00
63006;BME280;53704;52.532;6.426;2023-05-08T09:10:04;102117.22;;;17.51;100.00
63006;BME280;53704;52.532;6.426;2023-05-08T09:12:30;102107.13;;;17.29;100.00
63006;BME280;53704;52.532;6.426;2023-05-08T09:14:56;102110.63;;;17.38;100.00
63006;BME280;53704;52.532;6.426;2023-05-08T09:17:24;102109.56;;;17.47;100.00
63006;BME280;53704;52.532;6.426;2023-05-08T09:19:50;102108.44;;;17.41;100.00
63006;BME280;53704;52.532;6.426;2023-05-08T09:22:16;102106.75;;;16.92;100.00
63006;BME280;53704;52.532;6.426;2023-05-08T09:25:08;102108.25;;;17.43;100.00
63006;BME280;53704;52.532;6.426;2023-05-08T09:27:33;102102.88;;;18.12;100.00
63006;BME280;53704;52.532;6.426;2023-05-08T09:30:04;102104.00;;;18.41;100.00
63006;BME280;53704;52.532;6.426;2023-05-08T09:32:31;102103.03;;;18.34;100.00
63006;BME280;53704;52.532;6.426;2023-05-08T09:34:57;102098.13;;;18.29;100.00
63006;BME280;53704;52.532;6.426;2023-05-08T09:37:24;102088.75;;;18.32;100.00
63006;BME280;53704;52.532;6.426;2023-05-08T09:39:50;102093.72;;;18.96;100.00
63006;BME280;53704;52.532;6.426;2023-05-08T09:42:15;102100.16;;;18.50;100.00
63006;BME280;53704;52.532;6.426;2023-05-08T09:44:59;102103.97;;;19.24;100.00
63006;BME280;53704;52.532;6.426;2023-05-08T09:47:24;102099.94;;;18.90;100.00
63006;BME280;53704;52.532;6.426;2023-05-08T09:49:58;102103.88;;;18.87;100.00
63006;BME280;53704;52.532;6.426;2023-05-08T09:52:23;102096.47;;;19.84;100.00
63006;BME280;53704;52.532;6.426;2023-05-08T09:55:03;102107.72;;;20.17;100.00
63006;BME280;53704;52.532;6.426;2023-05-08T09:57:30;102107.72;;;20.17;100.00
63006;BME280;53704;52.532;6.426;2023-05-08T10:00:00;102100.72;;;19.86;100.00
63006;BME280;53704;52.532;6.426;2023-05-08T10:02:27;102094.81;;;20.33;100.00
63006;BME280;53704;52.532;6.426;2023-05-08T10:04:52;102100.19;;;20.76;100.00
63006;BME280;53704;52.532;6.426;2023-05-08T10:07:34;102091.50;;;20.37;100.00
63006;BME280;53704;52.532;6.426;2023-05-08T10:10:03;102092.50;;;20.08;100.00
63006;BME280;53704;52.532;6.426;2023-05-08T10:12:30;102099.78;;;20.72;100.00
63006;BME280;53704;52.532;6.426;2023-05-08T10:14:56;102089.81;;;21.00;100.00
63006;BME280;53704;52.532;6.426;2023-05-08T10:17:37;102092.81;;;21.05;100.00
63006;BME280;53704;52.532;6.426;2023-05-08T10:20:06;102086.59;;;21.38;100.00
63006;BME280;53704;52.532;6.426;2023-05-08T10:22:35;102096.34;;;21.47;100.00
63006;BME280;53704;52.532;6.426;2023-05-08T10:25:01;102090.28;;;21.52;100.00
63006;BME280;53704;52.532;6.426;2023-05-08T10:30:19;102083.34;;;21.62;100.00
63006;BME280;53704;52.532;6.426;2023-05-08T10:32:50;102086.78;;;22.11;100.00
63006;BME280;53704;52.532;6.426;2023-05-08T10:35:19;102078.66;;;21.01;100.00
63006;BME280;53704;52.532;6.426;2023-05-08T10:37:47;102077.72;;;20.81;100.00
63006;BME280;53704;52.532;6.426;2023-05-08T10:40:13;102077.03;;;21.07;100.00
63006;BME280;53704;52.532;6.426;2023-05-08T10:42:45;102083.50;;;21.47;100.00
63006;BME280;53704;52.532;6.426;2023-05-08T10:45:11;102079.84;;;22.29;100.00
63006;BME280;53704;52.532;6.426;2023-05-08T10:48:02;102081.28;;;22.58;100.00
63006;BME280;53704;52.532;6.426;2023-05-08T10:56:16;102073.91;;;21.85;100.00
63006;BME280;53704;52.532;6.426;2023-05-08T10:58:41;102083.84;;;21.24;100.00
63006;BME280;53704;52.532;6.426;2023-05-08T11:03:38;102073.59;;;21.46;100.00
63006;BME280;53704;52.532;6.426;2023-05-08T11:06:04;102073.97;;;21.37;100.00
63006;BME280;53704;52.532;6.426;2023-05-08T11:08:30;102073.28;;;22.56;100.00
63006;BME280;53704;52.532;6.426;2023-05-08T11:13:32;102072.28;;;23.16;100.00
63006;BME280;53704;52.532;6.426;2023-05-08T11:15:58;102070.03;;;23.52;100.00
63006;BME280;53704;52.532;6.426;2023-05-08T11:18:23;102078.66;;;23.10;100.00
63006;BME280;53704;52.532;6.426;2023-05-08T11:21:03;102069.19;;;23.44;100.00
63006;BME280;53704;52.532;6.426;2023-05-08T11:23:33;102068.53;;;23.88;100.00
63006;BME280;53704;52.532;6.426;2023-05-08T11:28:30;102059.00;;;23.90;100.00
63006;BME280;53704;52.532;6.426;2023-05-08T11:30:56;102068.81;;;23.41;100.00
63006;BME280;53704;52.532;6.426;2023-05-08T11:33:25;102050.13;;;24.38;100.00
63006;BME280;53704;52.532;6.426;2023-05-08T11:35:55;102061.88;;;24.46;100.00
63006;BME280;53704;52.532;6.426;2023-05-08T11:38:29;102041.75;;;24.27;100.00
63006;BME280;53704;52.532;6.426;2023-05-08T11:41:03;102049.72;;;24.35;100.00
63006;BME280;53704;52.532;6.426;2023-05-08T11:45:59;102046.34;;;24.33;100.00
63006;BME280;53704;52.532;6.426;2023-05-08T11:48:26;102051.97;;;23.24;100.00
63006;BME280;53704;52.532;6.426;2023-05-08T11:50:51;102047.66;;;24.05;100.00
63006;BME280;53704;52.532;6.426;2023-05-08T11:53:17;102044.91;;;23.73;100.00
63006;BME280;53704;52.532;6.426;2023-05-08T11:55:51;102046.44;;;24.01;100.00
63006;BME280;53704;52.532;6.426;2023-05-08T11:58:16;102040.13;;;23.94;100.00
63006;BME280;53704;52.532;6.426;2023-05-08T12:00:43;102039.16;;;23.49;100.00
63006;BME280;53704;52.532;6.426;2023-05-08T12:03:17;102041.25;;;24.11;100.00
63006;BME280;53704;52.532;6.426;2023-05-08T12:05:43;102034.84;;;24.17;100.00
63006;BME280;53704;52.532;6.426;2023-05-08T12:08:10;102040.22;;;23.80;100.00
63006;BME280;53704;52.532;6.426;2023-05-08T12:13:18;102033.56;;;23.63;100.00
63006;BME280;53704;52.532;6.426;2023-05-08T12:15:45;102035.00;;;24.23;100.00
63006;BME280;53704;52.532;6.426;2023-05-08T12:18:11;102026.25;;;24.32;100.00
63006;BME280;53704;52.532;6.426;2023-05-08T12:20:37;102027.63;;;24.23;100.00
63006;BME280;53704;52.532;6.426;2023-05-08T12:23:02;102023.69;;;23.87;100.00
63006;BME280;53704;52.532;6.426;2023-05-08T12:25:28;102025.06;;;24.65;100.00
63006;BME280;53704;52.532;6.426;2023-05-08T12:27:55;102017.78;;;24.34;100.00
63006;BME280;53704;52.532;6.426;2023-05-08T12:30:21;102028.13;;;24.13;100.00
63006;BME280;53704;52.532;6.426;2023-05-08T12:32:46;102020.53;;;24.34;100.00
63006;BME280;53704;52.532;6.426;2023-05-08T12:35:13;102026.22;;;23.89;100.00
63006;BME280;53704;52.532;6.426;2023-05-08T12:37:43;102026.34;;;24.44;100.00
63006;BME280;53704;52.532;6.426;2023-05-08T12:40:26;102022.22;;;24.10;100.00
63006;BME280;53704;52.532;6.426;2023-05-08T12:42:51;102024.63;;;22.90;100.00
63006;BME280;53704;52.532;6.426;2023-05-08T12:45:24;102022.56;;;24.20;100.00
63006;BME280;53704;52.532;6.426;2023-05-08T12:47:52;102021.06;;;24.43;100.00
63006;BME280;53704;52.532;6.426;2023-05-08T12:50:19;102013.00;;;24.23;100.00
63006;BME280;53704;52.532;6.426;2023-05-08T12:52:50;102024.78;;;23.79;100.00
63006;BME280;53704;52.532;6.426;2023-05-08T12:55:24;102021.88;;;23.42;100.00
63006;BME280;53704;52.532;6.426;2023-05-08T12:57:58;102018.47;;;23.47;100.00
63006;BME280;53704;52.532;6.426;2023-05-08T13:00:24;102004.78;;;23.34;100.00
63006;BME280;53704;52.532;6.426;2023-05-08T13:02:51;101995.72;;;23.33;100.00
63006;BME280;53704;52.532;6.426;2023-05-08T13:05:21;102004.91;;;23.77;100.00
63006;BME280;53704;52.532;6.426;2023-05-08T13:07:48;102008.03;;;23.24;100.00
63006;BME280;53704;52.532;6.426;2023-05-08T13:10:16;101999.47;;;22.08;100.00
63006;BME280;53704;52.532;6.426;2023-05-08T13:12:45;101997.47;;;22.69;100.00
63006;BME280;53704;52.532;6.426;2023-05-08T13:15:11;101995.59;;;23.15;100.00
63006;BME280;53704;52.532;6.426;2023-05-08T13:17:37;101991.28;;;22.87;100.00
63006;BME280;53704;52.532;6.426;2023-05-08T13:20:02;101991.22;;;23.00;100.00
63006;BME280;53704;52.532;6.426;2023-05-08T13:22:28;101989.16;;;23.34;100.00